Time;durP1;ratioP1;P1;durP2;ratioP2;P2;SDS_P1;SDS_P2;PMS_P1;PMS_P2;Temp;Humidity;BMP_temperature;BMP_pressure;BME280_temperature;BME280_humidity;BME280_pressure;Samples;Min_cycle;Max_cycle;Signal;HPM_P1;HPM_P2
2021/06/13 04:33:17;;;;;;;10.40;6.80;;;16.70;99.90;;;;;;4971001;22;20503;-77
2021/06/13 04:35:42;;;;;;;5.40;4.97;;;16.60;99.90;;;;;;4970849;28;20627;-77
2021/06/13 04:38:08;;;;;;;8.63;6.20;;;16.60;99.90;;;;;;4972320;28;20576;-77
2021/06/13 04:40:33;;;;;;;10.17;5.23;;;16.60;99.90;;;;;;4972530;28;20219;-77
2021/06/13 04:42:59;;;;;;;10.07;6.23;;;16.60;99.90;;;;;;4971993;28;20190;-77
2021/06/13 04:45:24;;;;;;;9.97;6.70;;;16.70;99.90;;;;;;4971990;28;20183;-77
2021/06/13 04:47:50;;;;;;;6.97;5.87;;;16.70;99.90;;;;;;4972917;28;20569;-79
2021/06/13 04:50:15;;;;;;;15.80;6.70;;;16.70;99.90;;;;;;4972998;28;20949;-78
2021/06/13 04:52:43;;;;;;;7.80;5.63;;;16.70;99.90;;;;;;4972720;28;20207;-78
2021/06/13 04:55:13;;;;;;;7.20;5.50;;;16.70;99.90;;;;;;4972706;28;20650;-78
2021/06/13 04:57:51;;;;;;;13.93;5.60;;;16.80;99.90;;;;;;4973031;28;20494;-78
2021/06/13 05:00:17;;;;;;;8.90;5.53;;;17.00;99.90;;;;;;4971196;28;20510;-76
2021/06/13 05:02:45;;;;;;;9.20;4.97;;;18.80;99.90;;;;;;4971984;28;20490;-78
2021/06/13 05:05:11;;;;;;;6.70;4.60;;;21.10;99.90;;;;;;4973065;28;20426;-78
2021/06/13 05:07:36;;;;;;;4.87;4.10;;;23.00;99.90;;;;;;4972389;28;20431;-75
2021/06/13 05:10:03;;;;;;;4.20;3.80;;;25.20;99.90;;;;;;4973356;28;20223;-77
2021/06/13 05:12:29;;;;;;;6.13;3.40;;;26.20;99.90;;;;;;4973283;28;20207;-79
2021/06/13 05:14:54;;;;;;;6.53;3.47;;;27.30;99.90;;;;;;4972458;28;20908;-79
2021/06/13 05:17:20;;;;;;;8.97;3.77;;;27.70;99.90;;;;;;4972800;28;20204;-78
2021/06/13 05:19:45;;;;;;;5.40;3.50;;;28.60;99.90;;;;;;4973194;28;20211;-79
2021/06/13 05:22:11;;;;;;;9.30;5.13;;;29.00;99.90;;;;;;4973304;28;20211;-79
2021/06/13 05:24:37;;;;;;;7.40;4.53;;;29.30;99.90;;;;;;4972340;28;20543;-77
2021/06/13 05:27:03;;;;;;;4.33;3.90;;;29.00;99.90;;;;;;4972459;28;20180;-79
2021/06/13 05:29:30;;;;;;;4.40;3.13;;;29.10;99.90;;;;;;4973311;28;20195;-79
2021/06/13 05:31:56;;;;;;;6.93;3.63;;;29.70;99.90;;;;;;4972396;28;20455;-79
2021/06/13 05:34:21;;;;;;;6.50;3.33;;;29.50;99.90;;;;;;4972447;28;20505;-79
2021/06/13 05:36:47;;;;;;;5.43;4.20;;;29.20;99.90;;;;;;4976221;28;20184;-79
2021/06/13 05:39:12;;;;;;;4.50;3.67;;;28.40;99.90;;;;;;4980351;28;20212;-79
2021/06/13 05:41:38;;;;;;;9.90;4.40;;;27.80;99.90;;;;;;4974450;28;20286;-78
2021/06/13 05:44:03;;;;;;;4.67;3.40;;;27.10;99.90;;;;;;4974677;28;20673;-78
2021/06/13 05:46:29;;;;;;;4.07;3.67;;;26.20;99.90;;;;;;4973805;28;20176;-78
2021/06/13 05:48:55;;;;;;;4.30;3.47;;;25.60;99.90;;;;;;4974669;28;20601;-78
2021/06/13 05:51:21;;;;;;;12.13;3.90;;;24.90;99.90;;;;;;4974131;28;20439;-78
2021/06/13 05:53:46;;;;;;;5.00;3.80;;;25.00;99.90;;;;;;4973014;28;20263;-78
2021/06/13 05:56:12;;;;;;;7.00;3.80;;;25.00;99.90;;;;;;4973328;28;20270;-79
2021/06/13 05:58:37;;;;;;;5.40;3.40;;;24.70;99.90;;;;;;4973043;28;20207;-77
2021/06/13 06:01:03;;;;;;;3.53;3.03;;;24.70;99.90;;;;;;4972633;28;20192;-77
2021/06/13 06:03:29;;;;;;;4.90;3.20;;;24.60;99.90;;;;;;4970680;28;20180;-77
2021/06/13 06:05:54;;;;;;;8.40;3.40;;;24.80;99.90;;;;;;4971577;28;20539;-78
2021/06/13 06:08:20;;;;;;;5.40;3.00;;;24.90;99.90;;;;;;4971477;28;20671;-77
2021/06/13 06:10:49;;;;;;;4.27;3.37;;;24.80;99.90;;;;;;4974193;28;20716;-78
2021/06/13 06:13:15;;;;;;;4.00;3.60;;;24.80;99.90;;;;;;4976656;28;20183;-77
2021/06/13 06:15:41;;;;;;;6.37;3.70;;;24.90;99.90;;;;;;4976648;28;20415;-77
2021/06/13 06:18:08;;;;;;;4.90;3.50;;;24.60;99.90;;;;;;4975241;28;20211;-78
2021/06/13 06:20:34;;;;;;;3.43;2.90;;;24.50;99.90;;;;;;4974713;28;20423;-77
2021/06/13 06:23:00;;;;;;;5.37;3.33;;;24.50;99.90;;;;;;4974982;28;20411;-78
2021/06/13 06:25:27;;;;;;;4.00;3.60;;;24.60;99.90;;;;;;4975296;28;20922;-77
2021/06/13 06:27:54;;;;;;;6.47;3.13;;;24.70;99.90;;;;;;4975498;28;20412;-78
2021/06/13 06:30:21;;;;;;;8.57;3.70;;;24.70;99.90;;;;;;4975024;28;20417;-77
2021/06/13 06:32:47;;;;;;;5.23;3.33;;;24.80;99.90;;;;;;4974592;28;20451;-78
2021/06/13 06:35:14;;;;;;;5.73;3.00;;;24.60;99.90;;;;;;4974250;28;20407;-77
2021/06/13 06:37:41;;;;;;;7.17;2.70;;;24.70;99.90;;;;;;4975233;28;20172;-77
2021/06/13 06:40:09;;;;;;;3.20;2.90;;;24.60;99.90;;;;;;4975292;28;20945;-77
2021/06/13 06:42:37;;;;;;;7.50;2.70;;;24.60;99.90;;;;;;4974049;28;20801;-76
2021/06/13 06:45:04;;;;;;;3.60;3.30;;;24.80;99.90;;;;;;4974597;28;20422;-77
2021/06/13 06:47:29;;;;;;;5.07;2.83;;;24.80;99.90;;;;;;4973771;28;20423;-78
2021/06/13 06:49:55;;;;;;;4.37;3.03;;;24.70;99.90;;;;;;4975530;28;20503;-79
2021/06/13 06:52:21;;;;;;;5.97;3.27;;;24.80;99.90;;;;;;4975487;28;20744;-79
2021/06/13 06:54:46;;;;;;;4.63;3.00;;;24.90;99.90;;;;;;4974554;28;20207;-79
2021/06/13 06:57:12;;;;;;;7.97;3.30;;;24.70;99.90;;;;;;4976899;28;20186;-80
2021/06/13 06:59:37;;;;;;;2.83;2.63;;;25.00;99.90;;;;;;4976676;28;20218;-78
2021/06/13 07:02:04;;;;;;;4.93;3.20;;;25.10;99.90;;;;;;4976430;28;20516;-79
2021/06/13 07:04:29;;;;;;;5.43;3.70;;;25.10;99.90;;;;;;4975722;28;20550;-80
2021/06/13 07:06:55;;;;;;;3.53;3.23;;;25.10;99.90;;;;;;4976411;28;20403;-79
2021/06/13 07:09:21;;;;;;;8.43;3.67;;;24.80;99.90;;;;;;4975210;28;20191;-79
2021/06/13 07:11:46;;;;;;;5.30;3.40;;;24.60;99.90;;;;;;4974771;28;20196;-78
2021/06/13 07:14:12;;;;;;;3.50;3.10;;;24.60;99.90;;;;;;4973679;28;20203;-78
2021/06/13 07:16:37;;;;;;;4.70;3.30;;;25.00;99.90;;;;;;4977247;28;20180;-78
2021/06/13 07:19:03;;;;;;;3.50;2.90;;;25.40;99.90;;;;;;4976226;28;20212;-79
2021/06/13 07:21:29;;;;;;;4.23;2.73;;;25.60;99.90;;;;;;4976282;28;20196;-79
2021/06/13 07:23:54;;;;;;;5.70;2.83;;;25.80;99.90;;;;;;4975177;28;20482;-79
2021/06/13 07:26:20;;;;;;;3.17;2.97;;;25.90;99.90;;;;;;4976196;28;20259;-79
2021/06/13 07:28:45;;;;;;;5.23;3.40;;;25.90;99.90;;;;;;4976234;28;20183;-79
2021/06/13 07:31:11;;;;;;;7.50;3.00;;;25.90;99.90;;;;;;4975307;28;20211;-79
2021/06/13 07:33:37;;;;;;;3.73;3.17;;;26.10;99.90;;;;;;4974798;28;20188;-78
2021/06/13 07:36:05;;;;;;;7.83;2.53;;;25.70;99.90;;;;;;4974978;28;20191;-79
2021/06/13 07:38:30;;;;;;;7.00;2.87;;;26.00;99.90;;;;;;4976033;28;20203;-80
2021/06/13 07:40:56;;;;;;;4.50;3.50;;;26.00;99.90;;;;;;4975103;28;20526;-78
2021/06/13 07:43:22;;;;;;;7.47;3.40;;;26.00;99.90;;;;;;4975573;28;20176;-79
2021/06/13 07:45:47;;;;;;;5.00;3.00;;;26.10;99.90;;;;;;4975475;28;20173;-78
2021/06/13 07:48:13;;;;;;;5.83;3.33;;;26.00;99.90;;;;;;4973758;28;20195;-78
2021/06/13 07:50:41;;;;;;;6.37;3.10;;;25.90;99.90;;;;;;4974343;28;20183;-79
2021/06/13 07:53:06;;;;;;;5.43;3.40;;;25.90;99.90;;;;;;4973396;28;20184;-78
2021/06/13 07:55:32;;;;;;;6.57;3.20;;;26.00;99.90;;;;;;4973704;28;20483;-79
2021/06/13 07:57:58;;;;;;;6.50;3.57;;;26.00;99.90;;;;;;4972495;28;20673;-78
2021/06/13 08:00:24;;;;;;;7.07;3.07;;;26.00;99.90;;;;;;4973204;28;20180;-79
2021/06/13 08:02:51;;;;;;;4.67;3.67;;;26.10;99.90;;;;;;4973025;28;20192;-75
2021/06/13 08:05:25;;;;;;;8.40;3.30;;;25.60;99.90;;;;;;4964792;28;20547;-73
2021/06/13 08:07:52;;;;;;;6.63;3.33;;;25.40;99.90;;;;;;4954106;28;20933;-76
2021/06/13 08:10:17;;;;;;;4.90;3.03;;;25.60;99.90;;;;;;4954051;28;20447;-75
2021/06/13 08:12:43;;;;;;;5.53;2.63;;;26.10;99.90;;;;;;4952992;28;20464;-75
2021/06/13 08:15:10;;;;;;;6.27;3.33;;;26.30;99.90;;;;;;4954006;28;20518;-76
2021/06/13 08:17:36;;;;;;;3.27;2.97;;;26.60;99.90;;;;;;4954424;28;20171;-76
2021/06/13 08:20:03;;;;;;;4.40;2.97;;;26.60;99.90;;;;;;4954014;28;20459;-76
2021/06/13 08:22:28;;;;;;;5.67;2.97;;;26.80;99.90;;;;;;4953772;28;20207;-76
2021/06/13 08:24:55;;;;;;;6.30;2.93;;;26.90;99.90;;;;;;4953669;28;20416;-76
2021/06/13 08:27:21;;;;;;;10.50;3.40;;;27.00;99.90;;;;;;4953483;28;20173;-76
2021/06/13 08:29:46;;;;;;;5.13;3.10;;;27.00;99.90;;;;;;4953914;28;20418;-76
2021/06/13 08:32:12;;;;;;;4.27;2.77;;;27.50;99.90;;;;;;4952171;28;20247;-76
2021/06/13 08:34:37;;;;;;;9.87;3.70;;;27.50;99.90;;;;;;4953027;28;20256;-75
2021/06/13 08:37:03;;;;;;;9.87;3.87;;;27.60;99.90;;;;;;4953651;28;20188;-77
2021/06/13 08:39:29;;;;;;;5.13;3.13;;;27.70;99.90;;;;;;4952311;29;20295;-76
2021/06/13 08:41:54;;;;;;;7.30;3.07;;;28.00;99.90;;;;;;4953562;28;20267;-76
2021/06/13 08:44:23;;;;;;;3.57;3.27;;;27.90;99.90;;;;;;4952285;28;20638;-77
2021/06/13 08:46:50;;;;;;;6.53;3.70;;;28.00;99.90;;;;;;4953146;28;20548;-76
2021/06/13 08:49:15;;;;;;;8.50;3.10;;;28.40;99.90;;;;;;4953235;28;20849;-77
2021/06/13 08:51:43;;;;;;;2.97;2.77;;;28.60;99.90;;;;;;4953038;28;20540;-77
2021/06/13 08:54:09;;;;;;;5.07;3.20;;;28.50;99.90;;;;;;4943695;29;20268;-77
2021/06/13 08:56:35;;;;;;;5.73;2.47;;;28.50;99.90;;;;;;4942348;29;20510;-79
2021/06/13 08:59:00;;;;;;;3.90;2.77;;;28.50;99.90;;;;;;4939763;29;20548;-77
2021/06/13 09:01:26;;;;;;;6.60;3.47;;;28.30;99.90;;;;;;4950468;28;20209;-77
2021/06/13 09:03:51;;;;;;;4.97;2.70;;;28.20;99.90;;;;;;4939942;28;20181;-78
2021/06/13 09:06:17;;;;;;;3.23;2.93;;;28.40;99.90;;;;;;4942944;29;20648;-75
2021/06/13 09:08:44;;;;;;;5.10;3.23;;;28.30;99.90;;;;;;4945403;29;20200;-77
2021/06/13 09:11:24;;;;;;;10.07;3.77;;;28.80;99.90;;;;;;4953381;28;20368;-78
2021/06/13 09:13:49;;;;;;;5.67;2.73;;;29.10;99.90;;;;;;4952858;28;20552;-77
2021/06/13 09:16:15;;;;;;;8.27;2.33;;;29.10;99.90;;;;;;4951324;29;20444;-76
2021/06/13 09:18:42;;;;;;;4.63;2.57;;;29.20;99.90;;;;;;4942387;28;20215;-77
2021/06/13 09:21:13;;;;;;;4.93;2.90;;;28.80;99.90;;;;;;4950696;29;20197;-77
2021/06/13 09:23:42;;;;;;;3.00;2.77;;;28.80;99.90;;;;;;4951859;28;20436;-77
2021/06/13 09:26:08;;;;;;;2.93;2.43;;;28.80;99.90;;;;;;4949494;28;20421;-76
2021/06/13 09:28:39;;;;;;;4.47;2.70;;;29.00;99.90;;;;;;4952517;28;20528;-76
2021/06/13 09:31:13;;;;;;;8.07;2.90;;;29.30;99.90;;;;;;4952193;29;20538;-78
2021/06/13 09:33:41;;;;;;;3.40;3.10;;;29.50;99.10;;;;;;4952135;28;20928;-79
2021/06/13 09:36:07;;;;;;;6.70;2.80;;;28.90;99.90;;;;;;4952412;28;20788;-77
2021/06/13 09:38:36;;;;;;;3.40;3.20;;;28.50;99.80;;;;;;4952459;28;20624;-76
2021/06/13 09:41:10;;;;;;;3.07;2.90;;;27.80;99.40;;;;;;4943779;28;20453;-76
2021/06/13 09:43:39;;;;;;;3.83;2.27;;;28.30;99.90;;;;;;4943237;28;20435;-75
2021/06/13 09:46:20;;;;;;;3.47;3.03;;;28.10;99.90;;;;;;4947968;28;20421;-73
2021/06/13 09:48:53;;;;;;;5.47;2.70;;;28.50;99.90;;;;;;4943059;29;20456;-72
2021/06/13 09:51:33;;;;;;;7.93;2.50;;;28.80;99.90;;;;;;4940494;29;20445;-74
2021/06/13 09:53:59;;;;;;;6.00;3.27;;;29.20;99.90;;;;;;4931988;29;20436;-75
2021/06/13 09:56:32;;;;;;;2.90;2.57;;;29.40;99.60;;;;;;4931770;29;20466;-75
2021/06/13 09:59:10;;;;;;;10.40;2.50;;;29.60;99.90;;;;;;4931884;29;21002;-73
2021/06/13 10:01:44;;;;;;;7.73;2.60;;;29.70;98.90;;;;;;4933114;29;20926;-75
2021/06/13 10:04:19;;;;;;;4.13;2.87;;;29.80;99.60;;;;;;4930913;29;20433;-77
2021/06/13 10:06:48;;;;;;;5.23;2.67;;;29.90;99.60;;;;;;4937080;29;20984;-76
2021/06/13 10:09:15;;;;;;;3.57;2.20;;;30.50;98.70;;;;;;4940854;28;20417;-75
2021/06/13 10:11:42;;;;;;;4.03;3.30;;;31.00;97.10;;;;;;4942826;28;20436;-76
2021/06/13 10:14:10;;;;;;;2.83;2.33;;;30.40;98.10;;;;;;4940707;29;20429;-75
2021/06/13 10:16:47;;;;;;;3.93;2.20;;;30.50;97.40;;;;;;4940871;28;20417;-76
2021/06/13 10:19:12;;;;;;;3.40;2.30;;;30.70;98.20;;;;;;4940942;28;20447;-76
2021/06/13 10:21:48;;;;;;;5.43;2.30;;;30.70;98.10;;;;;;4942939;29;20436;-76
2021/06/13 10:24:16;;;;;;;7.03;2.70;;;30.80;96.20;;;;;;4942200;29;20177;-75
2021/06/13 10:26:57;;;;;;;5.33;2.67;;;31.10;97.40;;;;;;4942097;28;20771;-77
2021/06/13 10:29:25;;;;;;;7.80;2.83;;;30.60;97.80;;;;;;4943428;28;21014;-76
2021/06/13 10:31:52;;;;;;;4.57;2.27;;;30.30;97.10;;;;;;4941371;28;20832;-77
2021/06/13 10:34:19;;;;;;;2.70;2.50;;;30.30;98.20;;;;;;4941948;29;20420;-74
2021/06/13 10:36:46;;;;;;;8.00;2.90;;;30.20;96.80;;;;;;4941568;29;20849;-76
2021/06/13 10:39:14;;;;;;;4.53;2.43;;;30.00;97.00;;;;;;4940589;28;20452;-75
2021/06/13 10:41:41;;;;;;;2.37;2.03;;;29.80;97.30;;;;;;4940705;28;20440;-76
2021/06/13 10:44:13;;;;;;;3.57;2.27;;;29.50;98.30;;;;;;4940781;28;20449;-77
2021/06/13 10:46:50;;;;;;;3.70;2.50;;;29.80;97.10;;;;;;4942256;29;20507;-76
2021/06/13 10:49:38;;;;;;;3.57;2.37;;;29.50;98.10;;;;;;4934818;29;20424;-76
2021/06/13 10:52:19;;;;;;;3.97;2.10;;;29.50;98.50;;;;;;4931731;29;20958;-76
2021/06/13 10:54:51;;;;;;;2.73;2.07;;;29.80;97.50;;;;;;4932257;29;20431;-74
2021/06/13 10:57:17;;;;;;;5.43;2.13;;;29.80;98.20;;;;;;4948091;29;20424;-74
2021/06/13 10:59:50;;;;;;;3.70;2.67;;;29.50;98.80;;;;;;4954963;28;20464;-75
2021/06/13 11:02:22;;;;;;;4.40;2.70;;;29.50;97.70;;;;;;4938920;28;20212;-78
2021/06/13 11:05:02;;;;;;;6.03;2.43;;;29.50;99.10;;;;;;4935111;29;20416;-75
2021/06/13 11:07:34;;;;;;;2.83;2.60;;;29.30;98.40;;;;;;4936224;29;20460;-75
2021/06/13 11:10:16;;;;;;;4.40;2.50;;;28.90;97.70;;;;;;4935844;29;20421;-74
2021/06/13 11:13:01;;;;;;;3.13;2.27;;;28.60;96.70;;;;;;4935223;29;20487;-74
2021/06/13 11:15:35;;;;;;;6.40;2.80;;;28.60;98.90;;;;;;4935865;29;20525;-75
2021/06/13 11:18:01;;;;;;;5.40;3.10;;;28.70;97.80;;;;;;4935217;29;20409;-76
2021/06/13 11:20:30;;;;;;;3.27;2.30;;;28.50;96.70;;;;;;4934419;29;20424;-75
2021/06/13 11:22:57;;;;;;;2.30;2.17;;;28.50;96.30;;;;;;4935027;29;20678;-74
2021/06/13 11:25:25;;;;;;;7.07;2.20;;;28.50;97.00;;;;;;4934641;29;20496;-74
2021/06/13 11:28:10;;;;;;;3.73;3.00;;;28.40;97.30;;;;;;4935357;29;20420;-74
2021/06/13 11:30:40;;;;;;;2.77;2.13;;;27.90;98.10;;;;;;4935410;29;20484;-74
2021/06/13 11:33:05;;;;;;;3.57;2.17;;;27.80;98.80;;;;;;4933646;29;20445;-73
2021/06/13 11:35:37;;;;;;;4.30;2.10;;;27.90;99.40;;;;;;4935024;29;20781;-74
2021/06/13 11:38:08;;;;;;;7.70;2.80;;;27.80;99.00;;;;;;4931519;29;20241;-75
2021/06/13 11:40:55;;;;;;;2.47;2.27;;;27.90;98.00;;;;;;4934898;29;20429;-77
2021/06/13 11:43:24;;;;;;;7.60;2.23;;;27.80;98.50;;;;;;4931150;29;20432;-74
2021/06/13 11:46:04;;;;;;;5.70;1.77;;;27.90;99.10;;;;;;4935423;29;20421;-74
2021/06/13 11:48:32;;;;;;;4.40;2.03;;;27.80;98.50;;;;;;4935331;29;20421;-75
2021/06/13 11:51:08;;;;;;;4.53;1.90;;;27.80;98.90;;;;;;4942525;28;20472;-73
2021/06/13 11:53:52;;;;;;;3.67;2.50;;;27.50;97.40;;;;;;4946082;29;20783;-75
2021/06/13 11:59:07;;;;;;;2.43;2.10;;;27.20;98.40;;;;;;4948589;29;20466;-74
2021/06/13 12:01:35;;;;;;;3.53;2.37;;;27.20;99.40;;;;;;4946485;28;21045;-74
2021/06/13 12:04:02;;;;;;;2.73;2.30;;;27.30;98.50;;;;;;4952454;28;20459;-75
2021/06/13 12:06:28;;;;;;;2.70;2.33;;;27.00;98.80;;;;;;4943741;28;21067;-74
2021/06/13 12:08:54;;;;;;;3.10;1.60;;;27.00;99.50;;;;;;4939724;28;20460;-75
2021/06/13 12:11:43;;;;;;;3.63;2.00;;;26.90;98.90;;;;;;4934293;29;20226;-73
2021/06/13 12:14:21;;;;;;;7.80;2.10;;;26.90;98.70;;;;;;4934072;29;20409;-75
2021/06/13 12:16:59;;;;;;;1.67;1.50;;;26.80;98.20;;;;;;4934220;29;20508;-75
2021/06/13 12:19:26;;;;;;;4.63;2.30;;;26.70;97.30;;;;;;4934485;29;20476;-74
2021/06/13 12:21:52;;;;;;;2.43;2.23;;;26.80;98.70;;;;;;4934289;29;20469;-73
2021/06/13 12:29:39;;;;;;;4.60;1.93;;;26.80;99.10;;;;;;4934322;29;20421;-75
2021/06/13 12:32:13;;;;;;;7.20;2.40;;;26.80;98.10;;;;;;4932510;29;20475;-75
2021/06/13 12:34:39;;;;;;;7.97;2.20;;;26.70;95.50;;;;;;4932916;29;20508;-72
2021/06/13 12:37:05;;;;;;;5.27;4.30;;;26.50;95.70;;;;;;4933916;29;20508;-74
2021/06/13 12:39:31;;;;;;;3.50;2.07;;;26.30;96.80;;;;;;4933495;29;20205;-74
2021/06/13 12:42:08;;;;;;;8.80;1.50;;;26.10;97.80;;;;;;4946023;29;20466;-74
2021/06/13 12:44:35;;;;;;;2.03;1.77;;;26.20;95.80;;;;;;4952278;28;20186;-75
2021/06/13 12:47:02;;;;;;;3.33;2.20;;;26.20;97.00;;;;;;4953100;28;20409;-74
2021/06/13 12:49:42;;;;;;;2.30;2.10;;;25.70;98.70;;;;;;4952605;28;20762;-74
2021/06/13 12:52:15;;;;;;;4.57;2.13;;;25.70;99.90;;;;;;4953012;28;20472;-74
2021/06/13 12:54:53;;;;;;;2.33;2.10;;;25.80;99.70;;;;;;4952470;28;20442;-74
2021/06/13 12:57:20;;;;;;;1.67;1.57;;;25.80;99.60;;;;;;4952826;28;20416;-74
2021/06/13 12:59:46;;;;;;;5.50;2.00;;;25.80;98.80;;;;;;4952446;28;20827;-74
2021/06/13 13:02:14;;;;;;;3.27;1.67;;;25.90;98.00;;;;;;4952941;28;20443;-74
2021/06/13 13:04:40;;;;;;;7.60;1.97;;;26.00;98.30;;;;;;4952018;28;20408;-74
2021/06/13 13:07:06;;;;;;;2.33;2.10;;;26.00;98.00;;;;;;4952625;28;20421;-74
2021/06/13 13:09:31;;;;;;;3.13;1.83;;;26.00;97.90;;;;;;4952925;28;20488;-75
2021/06/13 13:11:57;;;;;;;2.37;1.70;;;25.90;98.50;;;;;;4952334;28;20196;-75
2021/06/13 13:14:22;;;;;;;5.27;2.63;;;26.00;97.50;;;;;;4952133;28;20618;-75
2021/06/13 13:16:48;;;;;;;2.93;2.60;;;26.00;96.10;;;;;;4952632;28;20177;-74
2021/06/13 13:19:32;;;;;;;5.50;4.90;;;25.80;97.20;;;;;;4951790;28;20240;-73
2021/06/13 13:22:14;;;;;;;3.93;3.63;;;25.60;95.40;;;;;;4952476;28;20213;-75
2021/06/13 13:24:39;;;;;;;4.23;2.23;;;25.50;95.10;;;;;;4951802;28;20413;-74
2021/06/13 13:27:07;;;;;;;1.53;1.40;;;25.40;95.50;;;;;;4941890;28;20425;-74
2021/06/13 13:29:47;;;;;;;4.70;2.00;;;25.40;95.10;;;;;;4933405;29;20269;-74
2021/06/13 13:32:15;;;;;;;5.30;4.10;;;25.30;95.80;;;;;;4932889;29;20474;-74
2021/06/13 13:34:40;;;;;;;1.70;1.60;;;25.40;96.40;;;;;;4932434;29;20418;-73
2021/06/13 13:37:10;;;;;;;3.33;1.60;;;25.20;95.90;;;;;;4933070;29;20428;-74
2021/06/13 13:39:36;;;;;;;5.37;2.13;;;24.90;96.00;;;;;;4932677;29;20205;-74
2021/06/13 13:42:03;;;;;;;1.60;1.40;;;24.90;97.40;;;;;;4933406;29;20425;-74
2021/06/13 13:44:31;;;;;;;2.60;1.80;;;25.00;95.30;;;;;;4932415;28;20787;-74
2021/06/13 13:47:07;;;;;;;1.90;1.70;;;24.90;95.00;;;;;;4933086;29;20418;-73
2021/06/13 13:49:35;;;;;;;2.13;1.93;;;24.90;95.00;;;;;;4931497;29;20485;-75
2021/06/13 13:52:01;;;;;;;4.33;4.03;;;24.90;95.30;;;;;;4932998;29;20433;-73
2021/06/13 13:54:34;;;;;;;4.73;1.90;;;25.00;96.30;;;;;;4931864;29;20432;-75
2021/06/13 13:57:06;;;;;;;1.77;1.67;;;25.00;94.90;;;;;;4932901;29;20651;-75
2021/06/13 13:59:34;;;;;;;3.53;1.70;;;25.10;95.90;;;;;;4933001;29;20488;-74
2021/06/13 14:02:00;;;;;;;2.10;1.80;;;25.10;95.70;;;;;;4929143;29;20441;-75
2021/06/13 14:04:26;;;;;;;3.50;1.27;;;24.90;95.20;;;;;;4930343;29;20428;-74
2021/06/13 14:06:53;;;;;;;3.13;1.17;;;25.00;95.50;;;;;;4929703;29;20922;-74
2021/06/13 14:09:18;;;;;;;7.60;1.67;;;25.00;94.60;;;;;;4932802;29;20659;-74
2021/06/13 14:11:44;;;;;;;3.23;1.97;;;24.90;96.30;;;;;;4932945;29;20440;-75
2021/06/13 14:14:10;;;;;;;1.87;1.70;;;24.90;97.30;;;;;;4931668;29;20181;-72
2021/06/13 14:16:35;;;;;;;3.27;1.50;;;24.90;95.40;;;;;;4931509;29;20178;-74
2021/06/13 14:19:01;;;;;;;4.67;1.50;;;24.80;96.50;;;;;;4932863;29;20202;-74
2021/06/13 14:21:28;;;;;;;5.40;1.90;;;24.90;96.60;;;;;;4932239;29;20227;-76
2021/06/13 14:23:54;;;;;;;4.20;1.67;;;24.90;96.60;;;;;;4932397;29;20690;-75
2021/06/13 14:26:19;;;;;;;4.20;1.70;;;25.00;97.50;;;;;;4932626;29;20452;-74
2021/06/13 14:28:45;;;;;;;4.30;1.60;;;24.80;94.90;;;;;;4933289;29;20177;-72
2021/06/13 14:31:11;;;;;;;2.73;1.40;;;24.80;95.40;;;;;;4934235;29;20209;-72
2021/06/13 14:33:36;;;;;;;3.10;1.37;;;24.90;95.40;;;;;;4935437;29;20181;-66
2021/06/13 14:36:05;;;;;;;3.80;1.53;;;24.80;97.00;;;;;;4936628;29;20185;-65
2021/06/13 14:38:30;;;;;;;1.53;1.20;;;24.80;95.30;;;;;;4936223;29;20569;-65
2021/06/13 14:40:56;;;;;;;2.10;1.00;;;24.60;94.00;;;;;;4936283;29;20441;-65
2021/06/13 14:43:22;;;;;;;3.60;1.20;;;24.50;93.40;;;;;;4935238;29;20182;-65
2021/06/13 14:45:47;;;;;;;2.83;2.43;;;24.40;93.40;;;;;;4935764;29;20252;-65
2021/06/13 14:48:13;;;;;;;1.60;1.50;;;24.50;94.80;;;;;;4935783;29;20177;-65
2021/06/13 14:50:39;;;;;;;2.03;1.80;;;24.50;93.90;;;;;;4935744;29;20185;-65
2021/06/13 14:53:06;;;;;;;1.87;1.13;;;24.50;94.00;;;;;;4935546;29;20439;-65
2021/06/13 14:55:33;;;;;;;2.80;1.73;;;24.50;95.10;;;;;;4935944;29;20417;-64
2021/06/13 14:57:59;;;;;;;2.47;1.70;;;24.50;95.20;;;;;;4935414;29;20413;-65
2021/06/13 15:00:24;;;;;;;1.97;1.70;;;24.50;95.10;;;;;;4935772;29;20424;-65
2021/06/13 15:02:50;;;;;;;1.80;1.20;;;24.50;94.50;;;;;;4935266;29;20223;-65
2021/06/13 15:05:16;;;;;;;3.50;2.10;;;24.50;95.80;;;;;;4934229;29;20188;-64
2021/06/13 15:07:42;;;;;;;1.73;1.63;;;24.50;95.50;;;;;;4903055;29;20185;-66
2021/06/13 15:10:08;;;;;;;1.60;1.50;;;24.60;94.90;;;;;;4918887;29;20413;-66
2021/06/13 15:12:34;;;;;;;2.73;1.60;;;24.50;96.00;;;;;;4918068;29;20252;-66
2021/06/13 15:14:59;;;;;;;1.63;1.20;;;24.50;95.00;;;;;;4935476;29;20421;-63
2021/06/13 15:17:25;;;;;;;5.30;1.90;;;24.40;94.50;;;;;;4935217;29;20647;-65
2021/06/13 15:19:51;;;;;;;3.40;1.87;;;24.40;95.00;;;;;;4935515;29;20216;-64
2021/06/13 15:22:21;;;;;;;1.60;1.50;;;24.30;94.70;;;;;;4935455;29;20486;-66
2021/06/13 15:24:47;;;;;;;2.30;1.47;;;24.20;94.70;;;;;;4935888;29;20197;-66
2021/06/13 15:27:13;;;;;;;1.50;1.40;;;24.20;94.60;;;;;;4947182;28;20816;-64
2021/06/13 15:29:49;;;;;;;1.73;1.63;;;24.20;94.50;;;;;;4936138;29;20425;-65
2021/06/13 15:32:16;;;;;;;20.23;18.70;;;24.20;95.80;;;;;;4935332;29;20499;-66
2021/06/13 15:34:42;;;;;;;3.57;3.37;;;24.30;96.50;;;;;;4935188;29;20791;-65
2021/06/13 15:37:09;;;;;;;3.00;2.80;;;24.30;95.10;;;;;;4935375;29;20465;-65
2021/06/13 15:39:35;;;;;;;2.33;2.00;;;24.30;94.90;;;;;;4935452;29;20477;-62
2021/06/13 15:42:03;;;;;;;4.83;1.90;;;24.20;94.90;;;;;;4935165;29;20480;-63
2021/06/13 15:44:29;;;;;;;2.90;1.80;;;24.10;95.00;;;;;;4933605;29;20421;-64
2021/06/13 15:46:57;;;;;;;1.67;1.57;;;24.10;95.20;;;;;;4934968;29;20414;-64
2021/06/13 15:49:23;;;;;;;3.60;1.83;;;24.00;94.70;;;;;;4934193;29;20448;-63
2021/06/13 15:51:49;;;;;;;4.40;1.63;;;24.10;94.70;;;;;;4935196;29;20486;-66
2021/06/13 15:54:18;;;;;;;1.77;1.67;;;24.00;94.50;;;;;;4934751;29;20421;-65
2021/06/13 15:56:43;;;;;;;6.20;1.57;;;24.00;94.80;;;;;;4935533;29;20189;-64
2021/06/13 15:59:23;;;;;;;1.90;1.80;;;24.00;95.30;;;;;;4935466;29;20838;-64
2021/06/13 16:01:48;;;;;;;4.03;1.60;;;24.00;95.10;;;;;;4934770;29;20244;-65
2021/06/13 16:04:14;;;;;;;3.83;3.43;;;24.00;95.70;;;;;;4934502;29;20524;-64
2021/06/13 16:06:40;;;;;;;1.83;1.70;;;24.00;94.10;;;;;;4935212;29;20192;-65
2021/06/13 16:09:05;;;;;;;3.70;1.50;;;23.90;94.20;;;;;;4935648;29;20189;-64
2021/06/13 16:11:31;;;;;;;1.90;1.80;;;23.80;94.40;;;;;;4934458;29;20205;-65
2021/06/13 16:13:56;;;;;;;1.90;1.50;;;23.80;94.30;;;;;;4934581;29;20253;-65
2021/06/13 16:16:22;;;;;;;1.80;1.63;;;23.70;94.80;;;;;;4934769;29;20243;-65
2021/06/13 16:18:47;;;;;;;2.80;2.13;;;23.70;95.50;;;;;;4934644;29;20209;-65
2021/06/13 16:21:14;;;;;;;2.63;2.20;;;23.60;95.60;;;;;;4934765;29;20201;-65
2021/06/13 16:23:40;;;;;;;2.00;1.90;;;23.50;96.10;;;;;;4934013;29;20177;-66
2021/06/13 16:26:06;;;;;;;1.70;1.60;;;23.50;95.70;;;;;;4935164;29;20409;-65
2021/06/13 16:28:31;;;;;;;2.00;1.90;;;23.50;95.70;;;;;;4934890;29;20245;-64
2021/06/13 16:30:57;;;;;;;1.80;1.70;;;23.40;95.60;;;;;;4934253;29;20196;-64
2021/06/13 16:33:22;;;;;;;5.23;2.10;;;23.40;95.20;;;;;;4932149;29;20216;-65
2021/06/13 16:35:48;;;;;;;1.67;1.57;;;23.40;95.30;;;;;;4934705;29;20673;-65
2021/06/13 16:38:14;;;;;;;21.93;13.30;;;23.40;95.10;;;;;;4934559;29;20260;-65
2021/06/13 16:40:40;;;;;;;3.47;2.93;;;23.40;95.10;;;;;;4934414;29;20512;-65
2021/06/13 16:43:05;;;;;;;2.50;1.90;;;23.40;95.40;;;;;;4933865;29;20547;-65
2021/06/13 16:45:31;;;;;;;1.90;1.80;;;23.30;95.70;;;;;;4933525;29;20177;-65
2021/06/13 16:47:57;;;;;;;1.97;1.30;;;23.30;95.40;;;;;;4934378;29;20208;-65
2021/06/13 16:50:23;;;;;;;2.40;1.70;;;23.30;94.80;;;;;;4934083;29;20181;-65
2021/06/13 16:52:48;;;;;;;2.63;2.43;;;23.30;94.90;;;;;;4933016;29;20212;-65
2021/06/13 16:55:14;;;;;;;2.43;2.10;;;23.30;95.10;;;;;;4933861;29;20432;-76
2021/06/13 16:57:40;;;;;;;3.50;1.43;;;23.30;95.40;;;;;;4934033;29;20195;-75
2021/06/13 17:00:07;;;;;;;1.60;1.50;;;23.30;95.20;;;;;;4933585;29;21057;-74
2021/06/13 17:02:34;;;;;;;2.03;1.30;;;23.20;95.20;;;;;;4933392;29;20215;-73
2021/06/13 17:05:00;;;;;;;2.53;2.20;;;23.20;94.70;;;;;;4932463;29;20792;-75
2021/06/13 17:07:25;;;;;;;4.13;1.53;;;23.10;94.90;;;;;;4933944;29;20483;-74
2021/06/13 17:09:51;;;;;;;3.00;1.50;;;23.10;94.80;;;;;;4933939;29;20208;-72
2021/06/13 17:12:17;;;;;;;1.70;1.60;;;23.00;95.10;;;;;;4933248;29;20224;-74
2021/06/13 17:14:43;;;;;;;2.87;1.60;;;23.00;95.60;;;;;;4933137;29;20182;-75
2021/06/13 17:17:09;;;;;;;1.80;1.70;;;23.00;95.50;;;;;;4933998;29;20421;-74
2021/06/13 17:19:35;;;;;;;1.83;1.73;;;22.80;94.90;;;;;;4933338;29;20469;-74
2021/06/13 17:22:01;;;;;;;2.73;1.93;;;22.70;95.40;;;;;;4933587;29;20436;-75
2021/06/13 17:24:28;;;;;;;2.33;1.70;;;22.70;94.60;;;;;;4932685;29;20173;-76
2021/06/13 17:26:54;;;;;;;2.47;1.30;;;22.80;94.70;;;;;;4933314;29;20252;-74
2021/06/13 17:29:19;;;;;;;2.73;1.80;;;22.80;95.40;;;;;;4933357;29;21060;-75